Time;durP1;ratioP1;P1;durP2;ratioP2;P2;SDS_P1;SDS_P2;PMS_P1;PMS_P2;Temp;Humidity;BMP_temperature;BMP_pressure;BME280_temperature;BME280_humidity;BME280_pressure;Samples;Min_cycle;Max_cycle;Signal;HPM_P1;HPM_P2
2023/05/24 00:00:39;;;;;;;20.00;3.45;;;10.20;94.50;;;;;;6215634;23;20062;-70
2023/05/24 00:03:05;;;;;;;12.98;2.75;;;10.10;94.60;;;;;;6242484;23;20004;-70
2023/05/24 00:05:31;;;;;;;8.32;1.92;;;10.10;94.70;;;;;;6215567;23;20057;-70
2023/05/24 00:07:58;;;;;;;11.57;1.92;;;10.10;94.90;;;;;;6242497;23;19996;-70
2023/05/24 00:10:24;;;;;;;15.20;2.25;;;10.00;95.10;;;;;;6241344;23;20070;-70
2023/05/24 00:12:49;;;;;;;11.10;2.00;;;9.90;95.30;;;;;;6215557;23;20405;-70
2023/05/24 00:15:15;;;;;;;12.52;2.80;;;9.90;95.50;;;;;;6241987;23;20004;-70
2023/05/24 00:17:41;;;;;;;11.32;2.55;;;9.90;95.70;;;;;;6242566;23;20004;-70
2023/05/24 00:20:10;;;;;;;14.63;2.85;;;9.80;95.80;;;;;;6242331;23;20028;-70
2023/05/24 00:22:37;;;;;;;11.93;2.53;;;9.80;96.00;;;;;;6242678;23;20008;-70
2023/05/24 00:25:03;;;;;;;6.85;1.67;;;9.80;96.10;;;;;;6241728;23;20000;-70
2023/05/24 00:27:29;;;;;;;7.10;1.75;;;9.80;96.30;;;;;;6241741;23;20008;-71
2023/05/24 00:29:54;;;;;;;11.10;2.88;;;9.70;96.50;;;;;;6242325;23;20082;-70
2023/05/24 00:32:20;;;;;;;15.52;2.40;;;9.70;96.60;;;;;;6241547;23;20012;-70
2023/05/24 00:34:46;;;;;;;16.23;2.25;;;9.60;96.80;;;;;;6242157;23;20004;-70
2023/05/24 00:37:11;;;;;;;15.65;2.15;;;9.60;97.00;;;;;;6241927;23;20001;-70
2023/05/24 00:39:37;;;;;;;10.77;2.28;;;9.60;97.20;;;;;;6241588;23;20000;-70
2023/05/24 00:42:03;;;;;;;17.27;3.10;;;9.50;97.50;;;;;;6241725;23;20004;-71
2023/05/24 00:44:29;;;;;;;11.60;2.67;;;9.50;97.60;;;;;;6241821;23;20046;-70
2023/05/24 00:46:55;;;;;;;11.73;2.58;;;9.50;97.80;;;;;;6241818;23;20006;-70
2023/05/24 00:49:22;;;;;;;11.77;2.67;;;9.50;98.00;;;;;;6241676;23;20035;-70
2023/05/24 00:51:48;;;;;;;10.18;2.25;;;9.50;98.10;;;;;;6242210;23;20410;-70
2023/05/24 00:54:14;;;;;;;14.13;2.90;;;9.40;98.30;;;;;;6241188;23;20405;-70
2023/05/24 00:56:41;;;;;;;12.13;2.72;;;9.40;98.40;;;;;;6242177;23;20000;-70
2023/05/24 00:59:07;;;;;;;7.97;2.35;;;9.40;98.60;;;;;;6241855;23;20084;-70
2023/05/24 01:01:32;;;;;;;14.40;2.30;;;9.40;98.80;;;;;;6241538;23;20031;-70
2023/05/24 01:03:58;;;;;;;11.30;2.50;;;9.30;98.90;;;;;;6242025;23;20012;-70
2023/05/24 01:06:26;;;;;;;11.40;2.75;;;9.30;98.90;;;;;;6241736;23;20042;-70
2023/05/24 01:09:21;;;;;;;11.45;2.67;;;9.30;99.10;;;;;;6241628;23;20430;-70
2023/05/24 01:12:13;;;;;;;8.55;2.28;;;9.20;99.30;;;;;;6242000;23;20004;-70
2023/05/24 01:15:33;;;;;;;15.95;3.15;;;9.20;99.30;;;;;;6242109;23;20075;-70
2023/05/24 01:18:10;;;;;;;14.05;2.72;;;9.20;99.70;;;;;;6090235;23;20003;-70
2023/05/24 01:20:37;;;;;;;13.00;3.00;;;9.20;99.60;;;;;;6090422;23;20146;-70
2023/05/24 01:23:13;;;;;;;11.38;3.53;;;9.10;99.70;;;;;;6089881;23;20293;-70
2023/05/24 01:26:17;;;;;;;9.93;2.87;;;9.10;99.90;;;;;;6090270;23;20054;-70
2023/05/24 01:28:43;;;;;;;13.95;3.28;;;9.10;99.90;;;;;;6090466;23;20067;-70
2023/05/24 01:31:11;;;;;;;16.95;4.32;;;9.10;99.90;;;;;;6090103;23;20018;-70
2023/05/24 01:33:42;;;;;;;15.25;3.80;;;9.10;99.90;;;;;;6090196;23;20002;-70
2023/05/24 01:36:07;;;;;;;16.08;3.70;;;9.10;99.90;;;;;;6089836;23;20103;-70
2023/05/24 01:38:33;;;;;;;12.07;3.20;;;9.10;99.90;;;;;;6065989;23;20476;-70
2023/05/24 01:41:08;;;;;;;10.20;2.28;;;9.00;99.90;;;;;;6090426;23;20010;-70
2023/05/24 01:43:46;;;;;;;9.85;3.13;;;9.10;99.90;;;;;;6089983;23;20453;-70
2023/05/24 01:46:27;;;;;;;13.73;3.72;;;9.00;99.90;;;;;;6089939;23;20003;-70
2023/05/24 01:49:29;;;;;;;12.95;3.28;;;9.00;99.90;;;;;;6090298;23;20381;-71
2023/05/24 01:52:02;;;;;;;19.45;3.78;;;9.00;99.90;;;;;;6162345;23;20434;-70
2023/05/24 01:54:32;;;;;;;14.27;3.03;;;9.00;99.90;;;;;;6242760;23;20405;-70
2023/05/24 01:56:58;;;;;;;11.98;3.00;;;9.00;99.90;;;;;;6216608;23;20561;-70
2023/05/24 01:59:27;;;;;;;11.73;3.03;;;8.90;99.90;;;;;;6243462;23;20004;-70
2023/05/24 02:01:53;;;;;;;6.30;3.28;;;9.00;99.90;;;;;;6243544;23;20031;-70
2023/05/24 02:04:19;;;;;;;7.43;3.15;;;8.90;99.90;;;;;;6243380;23;20099;-70
2023/05/24 02:06:44;;;;;;;10.52;3.42;;;8.90;99.90;;;;;;6243227;23;20437;-70
2023/05/24 02:09:10;;;;;;;12.77;3.17;;;8.90;99.90;;;;;;6243623;23;20330;-70
2023/05/24 02:11:35;;;;;;;13.32;3.35;;;8.80;99.90;;;;;;6243641;23;20381;-70
2023/05/24 02:14:01;;;;;;;12.25;3.47;;;8.80;99.90;;;;;;6243662;23;20007;-70
2023/05/24 02:16:29;;;;;;;11.68;3.92;;;8.80;99.90;;;;;;6243128;23;20008;-70
2023/05/24 02:18:55;;;;;;;11.05;3.28;;;8.80;99.90;;;;;;6243481;23;20046;-70
2023/05/24 02:21:22;;;;;;;10.45;5.07;;;8.80;99.90;;;;;;6242511;23;20386;-70
2023/05/24 02:23:47;;;;;;;10.20;3.13;;;8.70;99.90;;;;;;6243332;23;20000;-70
2023/05/24 02:26:13;;;;;;;9.25;2.83;;;8.70;99.90;;;;;;6242680;23;20022;-70
2023/05/24 02:28:39;;;;;;;14.88;3.53;;;8.70;99.90;;;;;;6243281;23;20023;-70
2023/05/24 02:31:05;;;;;;;9.00;3.40;;;8.70;99.90;;;;;;6242988;23;20076;-70
2023/05/24 02:33:30;;;;;;;14.00;3.75;;;8.70;99.90;;;;;;6243007;23;20012;-70
2023/05/24 02:35:56;;;;;;;7.32;3.33;;;8.70;99.90;;;;;;6242835;23;20000;-70
2023/05/24 02:38:21;;;;;;;10.70;3.43;;;8.60;99.90;;;;;;6242519;23;20004;-70
2023/05/24 02:40:47;;;;;;;16.60;4.15;;;8.60;99.90;;;;;;6242643;23;20015;-70
2023/05/24 02:43:13;;;;;;;13.00;3.47;;;8.60;99.90;;;;;;6241794;23;20350;-70
2023/05/24 02:45:38;;;;;;;10.95;4.05;;;8.60;99.90;;;;;;6214542;23;20008;-70
2023/05/24 02:48:04;;;;;;;15.37;4.27;;;8.60;99.90;;;;;;6241658;23;20019;-70
2023/05/24 02:50:30;;;;;;;6.95;3.22;;;8.50;99.90;;;;;;6242383;23;20008;-70
2023/05/24 02:52:56;;;;;;;8.70;4.30;;;8.50;99.90;;;;;;6243320;23;20081;-70
2023/05/24 02:55:21;;;;;;;11.83;4.13;;;8.50;99.90;;;;;;6242318;23;19996;-70
2023/05/24 02:57:47;;;;;;;11.93;4.32;;;8.50;99.90;;;;;;6243132;23;19996;-70
2023/05/24 03:00:13;;;;;;;14.05;5.38;;;8.50;99.90;;;;;;6242728;23;20008;-70
2023/05/24 03:02:39;;;;;;;11.45;4.07;;;8.50;99.90;;;;;;6242526;23;20011;-70
2023/05/24 03:05:06;;;;;;;14.70;4.47;;;8.40;99.90;;;;;;6242312;23;20008;-71
2023/05/24 03:07:32;;;;;;;14.55;5.38;;;8.40;99.90;;;;;;6242897;23;20066;-70
2023/05/24 03:09:58;;;;;;;18.63;4.60;;;8.40;99.90;;;;;;6242916;23;20012;-70
2023/05/24 03:12:23;;;;;;;13.27;4.23;;;8.40;99.90;;;;;;6242504;23;20004;-71
2023/05/24 03:14:49;;;;;;;17.75;5.00;;;8.40;99.90;;;;;;6242668;23;20142;-70
2023/05/24 03:17:15;;;;;;;16.05;4.88;;;8.30;99.90;;;;;;6241972;23;20000;-70
2023/05/24 03:19:40;;;;;;;14.98;4.85;;;8.30;99.90;;;;;;6243006;23;20367;-70
2023/05/24 03:22:06;;;;;;;12.63;4.57;;;8.30;99.90;;;;;;6242446;23;20004;-70
2023/05/24 03:24:32;;;;;;;12.38;5.75;;;8.30;99.90;;;;;;6242573;23;20004;-70
2023/05/24 03:26:57;;;;;;;12.77;4.53;;;8.30;99.90;;;;;;6215594;23;20032;-70
2023/05/24 03:29:23;;;;;;;16.80;5.80;;;8.30;99.90;;;;;;6242347;23;20020;-70
2023/05/24 03:31:49;;;;;;;16.98;5.80;;;8.30;99.90;;;;;;6214998;23;20012;-70
2023/05/24 03:34:14;;;;;;;12.60;4.90;;;8.30;99.90;;;;;;6215278;23;20000;-70
2023/05/24 03:36:40;;;;;;;23.27;5.23;;;8.30;99.90;;;;;;6242782;23;20426;-70
2023/05/24 03:39:06;;;;;;;11.32;5.15;;;8.30;99.90;;;;;;6242505;23;20000;-70
2023/05/24 03:41:32;;;;;;;9.85;4.22;;;8.30;99.90;;;;;;6242296;23;20000;-70
2023/05/24 03:43:58;;;;;;;13.52;4.70;;;8.30;99.90;;;;;;6242595;23;20035;-70
2023/05/24 03:46:24;;;;;;;16.73;5.05;;;8.30;99.90;;;;;;6241514;23;20004;-70
2023/05/24 03:48:49;;;;;;;17.57;4.80;;;8.30;99.90;;;;;;6242603;23;20000;-70
2023/05/24 03:51:15;;;;;;;13.38;4.97;;;8.30;99.90;;;;;;6242161;23;20004;-70
2023/05/24 03:53:40;;;;;;;18.77;5.23;;;8.30;99.90;;;;;;6215561;23;20004;-70
2023/05/24 03:56:06;;;;;;;12.93;5.10;;;8.40;99.90;;;;;;6242424;23;20046;-70
2023/05/24 03:58:32;;;;;;;14.00;5.50;;;8.40;99.90;;;;;;6242168;23;20004;-70
2023/05/24 04:00:57;;;;;;;16.05;5.28;;;8.30;99.90;;;;;;6241752;23;20008;-70
2023/05/24 04:03:24;;;;;;;18.73;6.40;;;8.40;99.90;;;;;;6242045;23;20008;-70
2023/05/24 04:05:50;;;;;;;20.77;6.07;;;8.40;99.90;;;;;;6242333;23;20307;-70
2023/05/24 04:08:16;;;;;;;19.70;5.10;;;8.40;99.90;;;;;;6242025;23;20011;-70
2023/05/24 04:10:41;;;;;;;19.30;5.90;;;8.50;99.90;;;;;;6242182;23;20303;-70
2023/05/24 04:13:07;;;;;;;18.70;6.07;;;8.50;99.90;;;;;;6242257;23;20000;-70
2023/05/24 04:15:33;;;;;;;13.68;5.55;;;8.50;99.90;;;;;;6241440;23;20365;-70
2023/05/24 04:17:59;;;;;;;13.98;5.43;;;8.50;99.90;;;;;;6242140;23;20000;-70
2023/05/24 04:20:26;;;;;;;18.50;5.77;;;8.50;99.90;;;;;;6241989;23;20000;-70
2023/05/24 04:22:52;;;;;;;16.25;6.03;;;8.60;99.90;;;;;;6242296;23;20000;-70
2023/05/24 04:25:18;;;;;;;12.30;5.50;;;8.60;99.90;;;;;;6241699;23;20433;-70
2023/05/24 04:27:43;;;;;;;13.90;5.70;;;8.60;99.90;;;;;;6242707;23;20004;-70
2023/05/24 04:30:10;;;;;;;20.20;6.20;;;8.60;99.90;;;;;;6241353;23;20027;-70
2023/05/24 04:32:36;;;;;;;16.83;5.90;;;8.60;99.90;;;;;;6241938;23;20012;-70
2023/05/24 04:35:03;;;;;;;15.55;5.65;;;8.70;99.90;;;;;;6242100;23;20079;-70
2023/05/24 04:37:30;;;;;;;15.70;5.00;;;8.70;99.90;;;;;;6215072;23;20011;-69
2023/05/24 04:39:56;;;;;;;15.90;5.93;;;8.70;99.90;;;;;;6242116;23;19996;-70
2023/05/24 04:42:22;;;;;;;24.85;7.53;;;8.80;99.90;;;;;;6214529;23;20011;-70
2023/05/24 04:44:47;;;;;;;19.23;6.18;;;8.80;99.90;;;;;;6241348;23;20414;-70
2023/05/24 04:47:13;;;;;;;15.10;5.85;;;8.90;99.90;;;;;;6241337;23;20000;-70
2023/05/24 04:49:38;;;;;;;18.33;6.47;;;8.90;99.90;;;;;;6215193;23;20000;-69
2023/05/24 04:52:05;;;;;;;24.60;6.63;;;8.90;99.90;;;;;;6241739;23;20044;-70
2023/05/24 04:54:30;;;;;;;20.20;7.25;;;9.00;99.90;;;;;;6241582;23;20000;-70
2023/05/24 04:56:56;;;;;;;17.70;6.40;;;9.00;99.90;;;;;;6241962;23;20097;-70
2023/05/24 04:59:22;;;;;;;16.70;6.40;;;9.10;99.90;;;;;;6241033;23;20726;-70
2023/05/24 05:01:47;;;;;;;21.15;6.97;;;9.10;99.90;;;;;;6241764;23;20334;-69
2023/05/24 05:04:13;;;;;;;19.25;6.07;;;9.10;99.90;;;;;;6241327;23;19999;-70
2023/05/24 05:06:39;;;;;;;22.17;6.97;;;9.10;99.90;;;;;;6241931;23;19996;-70
2023/05/24 05:09:09;;;;;;;21.08;6.53;;;9.20;99.90;;;;;;6241819;23;20004;-70
2023/05/24 05:11:35;;;;;;;22.65;6.90;;;9.30;99.90;;;;;;6241470;23;20337;-70
2023/05/24 05:14:01;;;;;;;19.77;7.32;;;9.40;99.90;;;;;;6241152;23;20027;-70
2023/05/24 05:16:26;;;;;;;24.27;7.10;;;9.50;99.90;;;;;;6241335;23;20000;-70
2023/05/24 05:18:52;;;;;;;16.48;6.75;;;9.50;99.90;;;;;;6241697;23;20079;-70
2023/05/24 05:21:17;;;;;;;25.13;7.32;;;9.50;99.90;;;;;;6241356;23;20004;-71
2023/05/24 05:23:44;;;;;;;18.50;7.22;;;9.60;99.90;;;;;;6241799;23;20074;-70
2023/05/24 05:26:10;;;;;;;25.27;7.72;;;9.70;99.90;;;;;;6214456;23;20008;-70
2023/05/24 05:28:36;;;;;;;20.77;7.40;;;9.70;99.90;;;;;;6241729;23;20011;-70
2023/05/24 05:31:02;;;;;;;15.05;6.05;;;9.80;99.90;;;;;;6243777;23;20449;-70
2023/05/24 05:33:29;;;;;;;21.52;6.88;;;9.90;99.90;;;;;;6243624;23;20436;-70
2023/05/24 05:35:54;;;;;;;23.10;7.22;;;10.00;99.90;;;;;;6243952;23;20382;-69
2023/05/24 05:38:20;;;;;;;18.00;7.32;;;10.10;99.90;;;;;;6243424;23;20004;-70
2023/05/24 05:40:45;;;;;;;21.73;7.88;;;10.10;99.90;;;;;;6243889;23;20004;-69
2023/05/24 05:43:11;;;;;;;20.88;7.07;;;10.20;99.90;;;;;;6243035;23;20027;-70
2023/05/24 05:45:37;;;;;;;19.55;6.32;;;10.20;99.90;;;;;;6244001;23;20437;-70
2023/05/24 05:48:02;;;;;;;26.65;7.40;;;10.30;99.90;;;;;;6243918;23;20321;-70
2023/05/24 05:50:28;;;;;;;22.88;7.57;;;10.30;99.90;;;;;;6243436;23;20026;-70
2023/05/24 05:52:53;;;;;;;20.75;7.32;;;10.30;99.90;;;;;;6243963;23;20031;-70
2023/05/24 05:55:19;;;;;;;17.10;7.13;;;10.40;99.90;;;;;;6243358;23;20000;-70
2023/05/24 05:57:44;;;;;;;20.77;7.07;;;10.50;99.90;;;;;;6216294;23;20012;-70
2023/05/24 06:00:10;;;;;;;32.45;8.65;;;10.60;99.90;;;;;;6243237;23;20000;-70
2023/05/24 06:02:36;;;;;;;23.98;7.20;;;10.70;99.90;;;;;;6216273;23;20008;-71
2023/05/24 06:05:02;;;;;;;17.13;7.45;;;10.80;99.90;;;;;;6241568;23;20382;-78
2023/05/24 06:07:27;;;;;;;14.23;6.40;;;10.90;99.90;;;;;;6242242;23;20641;-78
2023/05/24 06:09:53;;;;;;;26.23;6.70;;;11.00;99.90;;;;;;6242874;23;20062;-78
2023/05/24 06:12:19;;;;;;;22.73;7.25;;;11.00;99.90;;;;;;6241876;23;20042;-77
2023/05/24 06:14:47;;;;;;;25.88;8.00;;;11.20;99.90;;;;;;6242920;23;20004;-78
2023/05/24 06:17:12;;;;;;;19.25;6.63;;;11.30;99.90;;;;;;6242377;23;20402;-77
2023/05/24 06:19:38;;;;;;;17.10;6.35;;;11.40;99.90;;;;;;6242903;23;20011;-78
2023/05/24 06:22:03;;;;;;;27.40;6.07;;;11.60;99.90;;;;;;6242596;23;20111;-78
2023/05/24 06:24:29;;;;;;;16.55;6.07;;;11.60;99.90;;;;;;6242644;23;20020;-78
2023/05/24 06:26:54;;;;;;;19.30;6.57;;;11.80;99.90;;;;;;6216178;23;20046;-77
2023/05/24 06:29:21;;;;;;;15.50;4.65;;;11.80;99.90;;;;;;6244513;23;20031;-77
2023/05/24 06:31:50;;;;;;;18.50;5.82;;;11.90;99.90;;;;;;6216751;23;20091;-78
2023/05/24 06:34:17;;;;;;;25.65;5.68;;;11.90;99.90;;;;;;6215263;23;20398;-77
2023/05/24 06:36:46;;;;;;;19.25;5.47;;;12.00;99.90;;;;;;6215927;23;20004;-76
2023/05/24 06:39:14;;;;;;;16.23;5.82;;;12.10;99.90;;;;;;6243914;23;20006;-77
2023/05/24 06:41:42;;;;;;;15.32;4.60;;;12.10;99.90;;;;;;6215046;23;20430;-77
2023/05/24 06:44:08;;;;;;;21.30;5.68;;;12.20;99.90;;;;;;6243956;23;20422;-77
2023/05/24 06:46:33;;;;;;;22.25;6.00;;;12.20;99.90;;;;;;6244262;23;20004;-77
2023/05/24 06:48:59;;;;;;;12.35;4.63;;;12.30;99.90;;;;;;6242976;23;20086;-77
2023/05/24 06:51:25;;;;;;;19.88;6.05;;;12.30;99.90;;;;;;6242411;23;20016;-78
2023/05/24 06:53:51;;;;;;;21.17;6.55;;;12.50;99.90;;;;;;6242217;23;20000;-77
2023/05/24 06:56:16;;;;;;;21.45;5.57;;;12.60;99.90;;;;;;6241492;23;20000;-77
2023/05/24 06:58:42;;;;;;;21.23;5.93;;;12.70;99.90;;;;;;6242141;23;20000;-77
2023/05/24 07:01:08;;;;;;;16.63;5.72;;;12.80;99.90;;;;;;6242171;23;20011;-77
2023/05/24 07:03:34;;;;;;;18.65;5.28;;;12.90;99.90;;;;;;6236987;23;20279;-76
2023/05/24 07:06:00;;;;;;;17.40;6.63;;;13.00;99.90;;;;;;6241425;23;20007;-77
2023/05/24 07:08:26;;;;;;;23.20;6.28;;;13.10;99.90;;;;;;6241141;23;20000;-77
2023/05/24 07:10:52;;;;;;;18.15;6.07;;;13.20;99.90;;;;;;6239892;23;20004;-77
2023/05/24 07:13:18;;;;;;;17.77;6.60;;;13.40;99.90;;;;;;6241389;23;20003;-77
2023/05/24 07:15:45;;;;;;;18.95;6.13;;;13.50;99.90;;;;;;6215024;23;20008;-77
2023/05/24 07:18:11;;;;;;;17.73;6.03;;;13.50;99.90;;;;;;6241192;23;20054;-77
2023/05/24 07:20:37;;;;;;;17.92;5.07;;;13.70;99.90;;;;;;6213445;23;20079;-76
2023/05/24 07:23:03;;;;;;;15.32;6.43;;;13.90;99.90;;;;;;6241872;23;20024;-77
2023/05/24 07:25:29;;;;;;;20.02;6.03;;;14.00;99.90;;;;;;6240818;23;20079;-77
2023/05/24 07:27:54;;;;;;;15.88;5.00;;;14.20;99.90;;;;;;6241856;23;19998;-77
2023/05/24 07:30:20;;;;;;;19.80;6.00;;;14.30;99.90;;;;;;6241435;23;20004;-77
2023/05/24 07:32:46;;;;;;;17.02;5.00;;;14.30;99.90;;;;;;6240026;23;20008;-77
2023/05/24 07:35:15;;;;;;;15.13;5.30;;;14.40;99.90;;;;;;6241686;23;20437;-77
2023/05/24 07:37:41;;;;;;;13.98;4.03;;;14.40;99.90;;;;;;6242000;23;20000;-77
2023/05/24 07:40:10;;;;;;;17.08;6.80;;;14.30;99.90;;;;;;6213854;23;20334;-77
2023/05/24 07:42:36;;;;;;;18.98;5.22;;;14.20;99.90;;;;;;6240468;23;20071;-77
2023/05/24 07:45:02;;;;;;;21.73;6.18;;;14.10;99.90;;;;;;6241795;23;20004;-76
2023/05/24 07:47:27;;;;;;;17.15;5.95;;;14.00;99.90;;;;;;6241530;23;20444;-77
2023/05/24 07:49:53;;;;;;;17.25;4.50;;;13.90;99.90;;;;;;6241529;23;20011;-76
2023/05/24 07:52:19;;;;;;;20.77;5.55;;;13.80;99.90;;;;;;6240479;23;20011;-76
2023/05/24 07:54:45;;;;;;;15.52;5.70;;;13.90;99.90;;;;;;6239618;23;20026;-77
2023/05/24 07:57:11;;;;;;;17.60;5.40;;;13.90;99.90;;;;;;6241186;23;20031;-76
2023/05/24 07:59:37;;;;;;;20.90;4.97;;;13.90;99.90;;;;;;6240882;23;19996;-76
2023/05/24 08:02:04;;;;;;;13.82;4.60;;;14.00;99.90;;;;;;6214490;23;20325;-77
2023/05/24 08:04:31;;;;;;;15.57;4.18;;;14.00;99.60;;;;;;6239903;23;20065;-76
2023/05/24 08:06:58;;;;;;;12.85;5.07;;;14.00;99.60;;;;;;6241738;23;20514;-77
2023/05/24 08:09:23;;;;;;;13.80;5.18;;;14.00;99.50;;;;;;6240471;23;20380;-75
2023/05/24 08:11:49;;;;;;;13.85;4.47;;;14.20;99.40;;;;;;6240983;23;20028;-76
2023/05/24 08:14:14;;;;;;;12.82;4.35;;;14.30;98.60;;;;;;6239500;23;20007;-75
2023/05/24 08:16:40;;;;;;;12.45;3.55;;;14.50;98.00;;;;;;6240233;23;20000;-76
2023/05/24 08:19:05;;;;;;;17.02;4.78;;;14.60;97.80;;;;;;6241055;23;20433;-76
2023/05/24 08:21:32;;;;;;;14.02;3.60;;;14.70;97.60;;;;;;6241145;23;20039;-76
2023/05/24 08:23:59;;;;;;;13.02;3.75;;;14.90;97.70;;;;;;6213994;23;20031;-76
2023/05/24 08:26:25;;;;;;;13.63;3.83;;;15.00;97.60;;;;;;6239241;23;20020;-76
2023/05/24 08:28:51;;;;;;;11.30;3.40;;;15.20;97.50;;;;;;6241142;23;20441;-76
2023/05/24 08:31:16;;;;;;;14.93;4.75;;;15.40;97.10;;;;;;6240790;23;20011;-75
2023/05/24 08:33:42;;;;;;;11.45;3.95;;;15.50;96.20;;;;;;6214367;23;20402;-76
2023/05/24 08:36:08;;;;;;;12.82;3.90;;;15.60;96.10;;;;;;6240234;23;20024;-76
2023/05/24 08:38:34;;;;;;;12.75;3.55;;;15.70;95.80;;;;;;6239977;23;20513;-76
2023/05/24 08:41:00;;;;;;;14.48;4.10;;;15.70;95.50;;;;;;6241112;23;20004;-76
2023/05/24 08:43:28;;;;;;;15.95;4.00;;;15.70;95.10;;;;;;6213905;23;20032;-76
2023/05/24 08:45:56;;;;;;;12.68;3.95;;;15.70;94.60;;;;;;6241418;23;20075;-76
2023/05/24 08:48:24;;;;;;;14.18;4.30;;;15.60;94.40;;;;;;6239131;23;20000;-76
2023/05/24 08:50:49;;;;;;;17.77;4.22;;;15.50;94.60;;;;;;6213771;23;20507;-76
2023/05/24 08:53:17;;;;;;;18.65;3.50;;;15.40;94.60;;;;;;6240523;23;20000;-76
2023/05/24 08:55:43;;;;;;;10.00;3.65;;;15.50;94.50;;;;;;6240761;23;20007;-76
2023/05/24 08:58:10;;;;;;;16.00;4.68;;;15.60;94.30;;;;;;6240295;23;20433;-76
2023/05/24 09:00:35;;;;;;;19.70;3.53;;;15.70;94.00;;;;;;6239927;23;19997;-76
2023/05/24 09:03:03;;;;;;;10.85;4.18;;;15.80;93.50;;;;;;6240912;23;20008;-76
2023/05/24 09:05:29;;;;;;;10.65;3.08;;;15.90;93.20;;;;;;6242315;23;19992;-76
2023/05/24 09:07:58;;;;;;;13.85;3.22;;;16.00;92.80;;;;;;6243055;23;20007;-76
2023/05/24 09:10:27;;;;;;;13.48;4.82;;;16.10;92.70;;;;;;6241368;23;20008;-76
2023/05/24 09:12:56;;;;;;;13.23;3.60;;;16.30;92.80;;;;;;6215878;23;20035;-76
2023/05/24 09:15:22;;;;;;;12.50;3.53;;;16.40;93.00;;;;;;6242382;23;20126;-76
2023/05/24 09:17:48;;;;;;;12.95;3.85;;;16.40;93.00;;;;;;6242723;23;19992;-76
2023/05/24 09:20:14;;;;;;;19.65;4.30;;;16.40;92.70;;;;;;6241545;23;20019;-76
2023/05/24 09:22:44;;;;;;;16.70;4.57;;;16.30;92.90;;;;;;6215341;23;20004;-76
2023/05/24 09:25:12;;;;;;;13.15;3.75;;;16.30;93.10;;;;;;6242728;23;20027;-76
2023/05/24 09:27:38;;;;;;;18.13;4.78;;;16.20;93.20;;;;;;6242902;23;20047;-77
2023/05/24 09:30:08;;;;;;;12.80;3.67;;;16.20;93.40;;;;;;6215089;23;20396;-77
2023/05/24 09:32:34;;;;;;;11.77;4.18;;;16.00;93.30;;;;;;6242211;23;20008;-76
2023/05/24 09:35:00;;;;;;;15.25;4.45;;;15.90;93.30;;;;;;6242662;23;20035;-76
2023/05/24 09:37:27;;;;;;;12.60;5.80;;;15.70;93.40;;;;;;6242634;23;20004;-77
2023/05/24 09:39:54;;;;;;;19.05;4.30;;;15.70;93.60;;;;;;6216425;23;20026;-77
2023/05/24 09:42:23;;;;;;;17.65;4.45;;;15.70;93.70;;;;;;6240935;23;20008;-76
2023/05/24 09:45:07;;;;;;;14.27;3.50;;;15.70;93.70;;;;;;6243209;23;20014;-77
2023/05/24 09:47:34;;;;;;;14.20;3.35;;;15.70;93.70;;;;;;6243774;23;20497;-77
2023/05/24 09:50:02;;;;;;;12.98;3.60;;;15.70;93.70;;;;;;6244778;23;20018;-77
2023/05/24 09:52:28;;;;;;;11.82;3.25;;;15.80;93.80;;;;;;6242341;23;20004;-76
2023/05/24 09:54:53;;;;;;;14.90;4.30;;;15.80;93.80;;;;;;6214330;23;20087;-76
2023/05/24 09:57:22;;;;;;;14.95;3.97;;;15.90;93.70;;;;;;6241909;23;20707;-76
2023/05/24 09:59:49;;;;;;;13.30;2.92;;;15.90;93.60;;;;;;6241922;23;20018;-76
2023/05/24 10:02:17;;;;;;;10.45;4.80;;;16.00;93.30;;;;;;6243401;23;20057;-76
2023/05/24 10:04:43;;;;;;;10.55;3.55;;;15.90;93.10;;;;;;6242314;23;20058;-76
2023/05/24 10:07:11;;;;;;;15.90;3.60;;;15.90;93.10;;;;;;6243427;23;20000;-76
2023/05/24 10:09:36;;;;;;;14.07;3.47;;;15.90;93.10;;;;;;6242881;23;20031;-76
2023/05/24 10:12:07;;;;;;;15.52;3.45;;;15.80;93.00;;;;;;6242257;23;20000;-76
2023/05/24 10:14:36;;;;;;;10.30;3.13;;;15.90;93.30;;;;;;6241926;23;20077;-75
2023/05/24 10:17:05;;;;;;;9.18;3.42;;;15.90;93.20;;;;;;6241559;23;20434;-76
2023/05/24 10:19:34;;;;;;;10.35;2.92;;;15.90;92.90;;;;;;6214154;23;20027;-76
2023/05/24 10:22:05;;;;;;;7.57;2.85;;;15.90;92.70;;;;;;6215587;23;20058;-77
2023/05/24 10:24:46;;;;;;;17.02;3.35;;;16.00;92.40;;;;;;6241568;23;20448;-76
2023/05/24 10:27:16;;;;;;;9.80;2.28;;;16.00;92.00;;;;;;6240240;23;20321;-76
2023/05/24 10:30:13;;;;;;;8.77;3.60;;;16.10;91.80;;;;;;6242032;23;20004;-75
2023/05/24 10:32:41;;;;;;;8.70;2.53;;;16.10;91.40;;;;;;6189292;23;20050;-75
2023/05/24 10:35:10;;;;;;;15.05;4.07;;;16.10;91.30;;;;;;6242443;23;20004;-76
2023/05/24 10:37:36;;;;;;;13.07;3.50;;;16.00;91.00;;;;;;6240539;23;20023;-76
2023/05/24 10:40:08;;;;;;;8.45;2.97;;;16.10;90.80;;;;;;6241931;23;20547;-76
2023/05/24 10:42:34;;;;;;;9.95;3.67;;;16.20;90.70;;;;;;6242323;23;20009;-76
2023/05/24 10:45:30;;;;;;;10.95;3.13;;;16.20;90.30;;;;;;6241517;23;20000;-75
2023/05/24 10:47:55;;;;;;;7.55;2.42;;;16.30;90.10;;;;;;6240085;23;20004;-75
2023/05/24 10:50:21;;;;;;;9.48;2.40;;;16.30;90.10;;;;;;6241393;23;20015;-75
2023/05/24 10:52:50;;;;;;;9.23;2.72;;;16.30;90.00;;;;;;6241745;23;20008;-76
2023/05/24 10:55:18;;;;;;;9.20;3.03;;;16.30;90.30;;;;;;6241546;23;20095;-75
2023/05/24 10:57:44;;;;;;;8.45;2.65;;;16.40;90.00;;;;;;6242265;23;20084;-75
2023/05/24 11:00:26;;;;;;;5.63;2.38;;;16.40;90.00;;;;;;6240531;23;20036;-75
2023/05/24 11:03:02;;;;;;;6.50;2.67;;;16.50;89.30;;;;;;6242142;23;20007;-75
2023/05/24 11:05:48;;;;;;;6.60;2.85;;;16.70;88.80;;;;;;6242112;23;20000;-76
2023/05/24 11:08:14;;;;;;;7.50;2.13;;;16.80;88.40;;;;;;6241853;23;20000;-76
2023/05/24 11:10:40;;;;;;;10.60;3.10;;;17.00;88.00;;;;;;6240520;23;20000;-76
2023/05/24 11:13:09;;;;;;;8.10;3.28;;;17.10;87.10;;;;;;6215231;23;20012;-76
2023/05/24 11:15:35;;;;;;;11.32;3.22;;;17.20;86.60;;;;;;6241667;23;20074;-76
2023/05/24 11:18:13;;;;;;;6.20;2.78;;;17.40;86.50;;;;;;6241956;23;20004;-75
2023/05/24 11:20:44;;;;;;;8.55;2.13;;;17.60;85.80;;;;;;6214610;23;20035;-76
2023/05/24 11:23:10;;;;;;;8.95;2.72;;;17.70;85.60;;;;;;6214141;23;20011;-76
2023/05/24 11:25:36;;;;;;;12.95;3.05;;;17.80;84.90;;;;;;6240906;23;20004;-76
2023/05/24 11:28:03;;;;;;;9.43;2.53;;;18.00;84.00;;;;;;6241944;23;19992;-76
2023/05/24 11:30:31;;;;;;;9.23;2.70;;;18.10;83.70;;;;;;6240896;23;20062;-75
2023/05/24 11:32:57;;;;;;;6.18;2.67;;;18.20;83.70;;;;;;6237600;23;20015;-75
2023/05/24 11:35:26;;;;;;;10.43;3.30;;;18.30;83.10;;;;;;6240739;23;20360;-76
2023/05/24 11:37:52;;;;;;;14.25;3.50;;;18.40;83.10;;;;;;6241723;23;20083;-75
2023/05/24 11:40:19;;;;;;;10.95;2.53;;;18.50;82.90;;;;;;6241687;23;20023;-76
2023/05/24 11:42:45;;;;;;;10.38;2.63;;;18.60;82.90;;;;;;6241067;23;20004;-76
2023/05/24 11:45:12;;;;;;;13.30;2.90;;;18.80;82.30;;;;;;6238610;23;20008;-75
2023/05/24 11:47:38;;;;;;;13.10;3.80;;;18.90;81.70;;;;;;6241792;23;20019;-76
2023/05/24 11:50:05;;;;;;;9.77;3.10;;;19.00;81.30;;;;;;6241046;23;20007;-76
2023/05/24 11:52:31;;;;;;;8.07;2.83;;;19.00;80.90;;;;;;6241448;23;20016;-75
2023/05/24 11:54:57;;;;;;;6.57;2.13;;;19.00;79.90;;;;;;6239847;23;20011;-75
2023/05/24 11:57:47;;;;;;;13.57;3.20;;;18.90;80.10;;;;;;6240071;23;20061;-75
2023/05/24 12:00:16;;;;;;;12.35;3.95;;;18.80;79.10;;;;;;6239825;23;20029;-75
2023/05/24 12:02:41;;;;;;;6.00;2.22;;;18.60;78.70;;;;;;6214444;23;20031;-75
2023/05/24 12:05:10;;;;;;;12.60;3.42;;;18.30;78.70;;;;;;6239775;23;20079;-76
2023/05/24 12:07:36;;;;;;;11.93;3.50;;;18.20;79.00;;;;;;6241508;23;20019;-75
2023/05/24 12:10:03;;;;;;;8.15;3.03;;;18.30;79.20;;;;;;6241367;23;20283;-74
2023/05/24 12:12:29;;;;;;;9.52;3.40;;;18.40;79.00;;;;;;6240577;23;20008;-75
2023/05/24 12:14:55;;;;;;;13.50;3.38;;;18.50;79.20;;;;;;6240627;23;20075;-75
2023/05/24 12:17:21;;;;;;;8.93;2.60;;;18.60;79.20;;;;;;6239528;23;20420;-74
2023/05/24 12:19:49;;;;;;;12.07;2.72;;;18.50;78.90;;;;;;6213402;23;20023;-75
2023/05/24 12:22:15;;;;;;;9.85;3.65;;;18.50;79.50;;;;;;6238999;23;20385;-75
2023/05/24 12:24:41;;;;;;;8.45;3.30;;;18.40;79.20;;;;;;6241425;23;20000;-75
2023/05/24 12:27:07;;;;;;;11.07;3.42;;;18.40;79.50;;;;;;6238152;23;20675;-75
2023/05/24 12:29:41;;;;;;;11.05;3.50;;;18.40;79.80;;;;;;6240410;23;20004;-75
2023/05/24 12:32:11;;;;;;;;;;;18.40;79.70;;;;;;6241120;23;20382;-74
2023/05/24 12:34:39;;;;;;;7.50;2.88;;;18.30;79.40;;;;;;6241294;23;19899;-75
2023/05/24 12:37:06;;;;;;;7.55;2.83;;;18.10;79.20;;;;;;6240915;23;20011;-75
2023/05/24 12:39:35;;;;;;;9.57;4.15;;;18.00;79.90;;;;;;6239477;23;20057;-75
2023/05/24 12:42:02;;;;;;;11.88;2.92;;;17.90;80.00;;;;;;6241135;23;20456;-75
2023/05/24 12:44:37;;;;;;;13.70;3.20;;;17.90;80.00;;;;;;6213290;23;20000;-75